Time;durP1;ratioP1;P1;durP2;ratioP2;P2;SDS_P1;SDS_P2;PMS_P1;PMS_P2;Temp;Humidity;BMP_temperature;BMP_pressure;BME280_temperature;BME280_humidity;BME280_pressure;Samples;Min_cycle;Max_cycle;Signal;HPM_P1;HPM_P2
2019/06/11 00:00:55;;;;;;;28.6;24.85;;;;;;;14.91;100;94717.25;;;;
2019/06/11 00:01:56;;;;;;;28.6;24.85;;;;;;;14.91;100;94717.25;;;;
2019/06/11 00:02:57;;;;;;;28.6;24.85;;;;;;;14.91;100;94717.25;;;;
2019/06/11 00:03:58;;;;;;;28.6;24.85;;;;;;;14.91;100;94717.25;;;;
2019/06/11 00:04:59;;;;;;;28.6;24.85;;;;;;;14.91;100;94717.25;;;;
2019/06/11 00:06:00;;;;;;;28.6;24.85;;;;;;;14.91;100;94717.25;;;;
2019/06/11 00:07:01;;;;;;;28.6;24.85;;;;;;;14.91;100;94717.25;;;;
2019/06/11 00:08:02;;;;;;;28.6;24.85;;;;;;;14.91;100;94717.25;;;;
2019/06/11 00:09:03;;;;;;;28.6;24.85;;;;;;;14.91;100;94717.25;;;;
2019/06/11 00:10:06;;;;;;;28.6;24.85;;;;;;;14.91;100;94717.25;;;;
2019/06/11 00:11:07;;;;;;;28.75;25.6;;;;;;;14.92;100;94718.33;;;;
2019/06/11 00:12:08;;;;;;;28.75;25.6;;;;;;;14.92;100;94718.33;;;;
2019/06/11 00:13:09;;;;;;;28.75;25.6;;;;;;;14.92;100;94718.33;;;;
2019/06/11 00:14:10;;;;;;;28.75;25.6;;;;;;;14.92;100;94718.33;;;;
2019/06/11 00:15:11;;;;;;;28.75;25.6;;;;;;;14.92;100;94718.33;;;;
2019/06/11 00:16:12;;;;;;;28.75;25.6;;;;;;;14.92;100;94718.33;;;;
2019/06/11 00:17:13;;;;;;;28.75;25.6;;;;;;;14.92;100;94718.33;;;;
2019/06/11 00:18:14;;;;;;;28.75;25.6;;;;;;;14.92;100;94718.33;;;;
2019/06/11 00:19:16;;;;;;;28.75;25.6;;;;;;;14.92;100;94718.33;;;;
2019/06/11 00:20:17;;;;;;;28.75;25.6;;;;;;;14.92;100;94718.33;;;;
2019/06/11 00:21:18;;;;;;;28.75;25.6;;;;;;;14.92;100;94718.33;;;;
2019/06/11 00:22:19;;;;;;;30.45;27;;;;;;;14.92;100;94695.63;;;;
2019/06/11 00:23:20;;;;;;;30.45;27;;;;;;;14.92;100;94695.63;;;;
2019/06/11 00:24:21;;;;;;;30.45;27;;;;;;;14.92;100;94695.63;;;;
2019/06/11 00:25:22;;;;;;;30.45;27;;;;;;;14.92;100;94695.63;;;;
2019/06/11 00:26:23;;;;;;;30.45;27;;;;;;;14.92;100;94695.63;;;;
2019/06/11 00:27:24;;;;;;;30.45;27;;;;;;;14.92;100;94695.63;;;;
2019/06/11 00:28:25;;;;;;;30.45;27;;;;;;;14.92;100;94695.63;;;;
2019/06/11 00:29:27;;;;;;;30.45;27;;;;;;;14.92;100;94695.63;;;;
2019/06/11 00:30:28;;;;;;;30.45;27;;;;;;;14.92;100;94695.63;;;;
2019/06/11 00:31:29;;;;;;;30.45;27;;;;;;;14.92;100;94695.63;;;;
2019/06/11 00:32:30;;;;;;;30.5;26.25;;;;;;;15.06;100;94723.03;;;;
2019/06/11 00:33:31;;;;;;;30.5;26.25;;;;;;;15.06;100;94723.03;;;;
2019/06/11 00:34:32;;;;;;;30.5;26.25;;;;;;;15.06;100;94723.03;;;;
2019/06/11 00:35:33;;;;;;;30.5;26.25;;;;;;;15.06;100;94723.03;;;;
2019/06/11 00:36:34;;;;;;;30.5;26.25;;;;;;;15.06;100;94723.03;;;;
2019/06/11 00:37:35;;;;;;;30.5;26.25;;;;;;;15.06;100;94723.03;;;;
2019/06/11 00:38:36;;;;;;;30.5;26.25;;;;;;;15.06;100;94723.03;;;;
2019/06/11 00:39:37;;;;;;;30.5;26.25;;;;;;;15.06;100;94723.03;;;;
2019/06/11 00:40:38;;;;;;;30.5;26.25;;;;;;;15.06;100;94723.03;;;;
2019/06/11 00:41:40;;;;;;;30.5;26.25;;;;;;;15.06;100;94723.03;;;;
2019/06/11 00:42:41;;;;;;;32.95;26.9;;;;;;;15.12;100;94714.6;;;;
2019/06/11 00:43:42;;;;;;;32.95;26.9;;;;;;;15.12;100;94714.6;;;;
2019/06/11 00:44:43;;;;;;;32.95;26.9;;;;;;;15.12;100;94714.6;;;;
2019/06/11 00:45:44;;;;;;;32.95;26.9;;;;;;;15.12;100;94714.6;;;;
2019/06/11 00:46:45;;;;;;;32.95;26.9;;;;;;;15.12;100;94714.6;;;;
2019/06/11 00:47:46;;;;;;;32.95;26.9;;;;;;;15.12;100;94714.6;;;;
2019/06/11 00:48:47;;;;;;;32.95;26.9;;;;;;;15.12;100;94714.6;;;;
2019/06/11 00:49:48;;;;;;;32.95;26.9;;;;;;;15.12;100;94714.6;;;;
2019/06/11 00:50:49;;;;;;;32.95;26.9;;;;;;;15.12;100;94714.6;;;;
2019/06/11 00:51:50;;;;;;;32.95;26.9;;;;;;;15.12;100;94714.6;;;;
2019/06/11 00:52:51;;;;;;;32.95;26.9;;;;;;;15.12;100;94714.6;;;;
2019/06/11 00:53:52;;;;;;;33;26.35;;;;;;;15.22;100;94720.53;;;;
2019/06/11 00:54:53;;;;;;;33;26.35;;;;;;;15.22;100;94720.53;;;;
2019/06/11 00:55:54;;;;;;;33;26.35;;;;;;;15.22;100;94720.53;;;;
2019/06/11 00:56:56;;;;;;;33;26.35;;;;;;;15.22;100;94720.53;;;;
2019/06/11 00:57:57;;;;;;;33;26.35;;;;;;;15.22;100;94720.53;;;;
2019/06/11 00:58:58;;;;;;;33;26.35;;;;;;;15.22;100;94720.53;;;;
2019/06/11 00:59:59;;;;;;;33;26.35;;;;;;;15.22;100;94720.53;;;;
2019/06/11 01:01:00;;;;;;;33;26.35;;;;;;;15.22;100;94720.53;;;;
2019/06/11 01:02:01;;;;;;;33;26.35;;;;;;;15.22;100;94720.53;;;;
2019/06/11 01:03:02;;;;;;;33;26.35;;;;;;;15.22;100;94720.53;;;;
2019/06/11 01:04:03;;;;;;;33;26.35;;;;;;;15.22;100;94720.53;;;;
2019/06/11 01:05:04;;;;;;;33;26.35;;;;;;;15.22;100;94720.53;;;;
2019/06/11 01:06:06;;;;;;;33;26.35;;;;;;;15.22;100;94720.53;;;;
2019/06/11 01:07:07;;;;;;;33;26.35;;;;;;;15.22;100;94720.53;;;;
2019/06/11 01:08:08;;;;;;;33;26.35;;;;;;;15.22;100;94720.53;;;;
2019/06/11 01:09:09;;;;;;;33;26.35;;;;;;;15.22;100;94720.53;;;;
2019/06/11 01:10:11;;;;;;;33;26.35;;;;;;;15.22;100;94720.53;;;;
2019/06/11 01:11:12;;;;;;;33;26.35;;;;;;;15.22;100;94720.53;;;;
2019/06/11 01:12:13;;;;;;;33;26.35;;;;;;;15.22;100;94720.53;;;;
2019/06/11 01:13:14;;;;;;;33;26.35;;;;;;;15.22;100;94720.53;;;;
2019/06/11 01:14:15;;;;;;;33;26.35;;;;;;;15.22;100;94720.53;;;;
2019/06/11 01:15:16;;;;;;;26.2;23.35;;;;;;;15.32;100;94687.03;;;;
2019/06/11 01:16:20;;;;;;;26.2;23.35;;;;;;;15.32;100;94687.03;;;;
2019/06/11 01:17:21;;;;;;;26.2;23.35;;;;;;;15.32;100;94687.03;;;;
2019/06/11 01:18:22;;;;;;;26.2;23.35;;;;;;;15.32;100;94687.03;;;;
2019/06/11 01:19:23;;;;;;;26.2;23.35;;;;;;;15.32;100;94687.03;;;;
2019/06/11 01:20:24;;;;;;;26.2;23.35;;;;;;;15.32;100;94687.03;;;;
2019/06/11 01:21:26;;;;;;;26.2;23.35;;;;;;;15.32;100;94687.03;;;;
2019/06/11 01:22:27;;;;;;;26.2;23.35;;;;;;;15.32;100;94687.03;;;;
2019/06/11 01:23:28;;;;;;;26.2;23.35;;;;;;;15.32;100;94687.03;;;;
2019/06/11 01:24:29;;;;;;;26.2;23.35;;;;;;;15.32;100;94687.03;;;;
2019/06/11 01:25:30;;;;;;;26.95;23.55;;;;;;;15.31;100;94679.83;;;;
2019/06/11 01:26:32;;;;;;;26.95;23.55;;;;;;;15.31;100;94679.83;;;;
2019/06/11 01:27:33;;;;;;;26.95;23.55;;;;;;;15.31;100;94679.83;;;;
2019/06/11 01:28:34;;;;;;;26.95;23.55;;;;;;;15.31;100;94679.83;;;;
2019/06/11 01:29:35;;;;;;;26.95;23.55;;;;;;;15.31;100;94679.83;;;;
2019/06/11 01:30:36;;;;;;;26.95;23.55;;;;;;;15.31;100;94679.83;;;;
2019/06/11 01:31:37;;;;;;;26.95;23.55;;;;;;;15.31;100;94679.83;;;;
2019/06/11 01:32:39;;;;;;;26.95;23.55;;;;;;;15.31;100;94679.83;;;;
2019/06/11 01:33:40;;;;;;;26.95;23.55;;;;;;;15.31;100;94679.83;;;;
2019/06/11 01:34:41;;;;;;;26.95;23.55;;;;;;;15.31;100;94679.83;;;;
2019/06/11 01:35:42;;;;;;;27.3;24.15;;;;;;;15.39;100;94682.09;;;;
2019/06/11 01:36:43;;;;;;;27.3;24.15;;;;;;;15.39;100;94682.09;;;;
2019/06/11 01:37:44;;;;;;;27.3;24.15;;;;;;;15.39;100;94682.09;;;;
2019/06/11 01:38:46;;;;;;;27.3;24.15;;;;;;;15.39;100;94682.09;;;;
2019/06/11 01:39:47;;;;;;;27.3;24.15;;;;;;;15.39;100;94682.09;;;;
2019/06/11 01:40:48;;;;;;;27.3;24.15;;;;;;;15.39;100;94682.09;;;;
2019/06/11 01:41:49;;;;;;;27.3;24.15;;;;;;;15.39;100;94682.09;;;;
2019/06/11 01:42:50;;;;;;;27.3;24.15;;;;;;;15.39;100;94682.09;;;;
2019/06/11 01:43:51;;;;;;;27.3;24.15;;;;;;;15.39;100;94682.09;;;;
2019/06/11 01:44:52;;;;;;;27.3;24.15;;;;;;;15.39;100;94682.09;;;;
2019/06/11 01:45:54;;;;;;;27.3;24.15;;;;;;;15.39;100;94682.09;;;;
2019/06/11 01:46:55;;;;;;;26.9;23.1;;;;;;;15.37;100;94676.53;;;;
2019/06/11 01:47:56;;;;;;;26.9;23.1;;;;;;;15.37;100;94676.53;;;;
2019/06/11 01:48:57;;;;;;;26.9;23.1;;;;;;;15.37;100;94676.53;;;;
2019/06/11 01:49:58;;;;;;;26.9;23.1;;;;;;;15.37;100;94676.53;;;;
2019/06/11 01:50:59;;;;;;;26.9;23.1;;;;;;;15.37;100;94676.53;;;;
2019/06/11 01:52:00;;;;;;;26.9;23.1;;;;;;;15.37;100;94676.53;;;;
2019/06/11 01:53:02;;;;;;;26.9;23.1;;;;;;;15.37;100;94676.53;;;;
2019/06/11 01:54:03;;;;;;;26.9;23.1;;;;;;;15.37;100;94676.53;;;;
2019/06/11 01:55:04;;;;;;;26.9;23.1;;;;;;;15.37;100;94676.53;;;;
2019/06/11 01:56:06;;;;;;;26.9;23.1;;;;;;;15.37;100;94676.53;;;;
2019/06/11 01:57:07;;;;;;;27.8;22.45;;;;;;;15.4;100;94695.01;;;;
2019/06/11 01:58:08;;;;;;;27.8;22.45;;;;;;;15.4;100;94695.01;;;;
2019/06/11 01:59:09;;;;;;;27.8;22.45;;;;;;;15.4;100;94695.01;;;;
2019/06/11 02:00:11;;;;;;;27.8;22.45;;;;;;;15.4;100;94695.01;;;;
2019/06/11 02:01:12;;;;;;;27.8;22.45;;;;;;;15.4;100;94695.01;;;;
2019/06/11 02:02:13;;;;;;;27.8;22.45;;;;;;;15.4;100;94695.01;;;;
2019/06/11 02:03:14;;;;;;;27.8;22.45;;;;;;;15.4;100;94695.01;;;;
2019/06/11 02:04:16;;;;;;;27.8;22.45;;;;;;;15.4;100;94695.01;;;;
2019/06/11 02:05:17;;;;;;;27.8;22.45;;;;;;;15.4;100;94695.01;;;;
2019/06/11 02:06:18;;;;;;;27.8;22.45;;;;;;;15.4;100;94695.01;;;;
2019/06/11 02:07:19;;;;;;;29;24.15;;;;;;;15.38;100;94709.84;;;;
2019/06/11 02:08:21;;;;;;;29;24.15;;;;;;;15.38;100;94709.84;;;;
2019/06/11 02:09:22;;;;;;;29;24.15;;;;;;;15.38;100;94709.84;;;;
2019/06/11 02:10:23;;;;;;;29;24.15;;;;;;;15.38;100;94709.84;;;;
2019/06/11 02:11:24;;;;;;;29;24.15;;;;;;;15.38;100;94709.84;;;;
2019/06/11 02:12:25;;;;;;;29;24.15;;;;;;;15.38;100;94709.84;;;;
2019/06/11 02:13:26;;;;;;;29;24.15;;;;;;;15.38;100;94709.84;;;;
2019/06/11 02:14:28;;;;;;;29;24.15;;;;;;;15.38;100;94709.84;;;;
2019/06/11 02:15:29;;;;;;;29;24.15;;;;;;;15.38;100;94709.84;;;;
2019/06/11 02:16:30;;;;;;;29;24.15;;;;;;;15.38;100;94709.84;;;;
2019/06/11 02:17:31;;;;;;;29;24.15;;;;;;;15.38;100;94709.84;;;;
2019/06/11 02:18:32;;;;;;;28.85;24.25;;;;;;;15.42;100;94733.67;;;;
2019/06/11 02:19:33;;;;;;;28.85;24.25;;;;;;;15.42;100;94733.67;;;;
2019/06/11 02:20:34;;;;;;;28.85;24.25;;;;;;;15.42;100;94733.67;;;;
2019/06/11 02:21:35;;;;;;;28.85;24.25;;;;;;;15.42;100;94733.67;;;;
2019/06/11 02:22:36;;;;;;;28.85;24.25;;;;;;;15.42;100;94733.67;;;;
2019/06/11 02:23:38;;;;;;;28.85;24.25;;;;;;;15.42;100;94733.67;;;;
2019/06/11 02:24:39;;;;;;;28.85;24.25;;;;;;;15.42;100;94733.67;;;;
2019/06/11 02:25:40;;;;;;;28.85;24.25;;;;;;;15.42;100;94733.67;;;;
2019/06/11 02:26:41;;;;;;;28.85;24.25;;;;;;;15.42;100;94733.67;;;;
2019/06/11 02:27:42;;;;;;;28.85;24.25;;;;;;;15.42;100;94733.67;;;;
2019/06/11 02:28:44;;;;;;;34.2;29.2;;;;;;;15.42;100;94758.15;;;;
2019/06/11 02:29:45;;;;;;;34.2;29.2;;;;;;;15.42;100;94758.15;;;;
2019/06/11 02:30:46;;;;;;;34.2;29.2;;;;;;;15.42;100;94758.15;;;;
2019/06/11 02:31:47;;;;;;;34.2;29.2;;;;;;;15.42;100;94758.15;;;;
2019/06/11 02:32:48;;;;;;;34.2;29.2;;;;;;;15.42;100;94758.15;;;;
2019/06/11 02:33:49;;;;;;;34.2;29.2;;;;;;;15.42;100;94758.15;;;;
2019/06/11 02:34:50;;;;;;;34.2;29.2;;;;;;;15.42;100;94758.15;;;;
2019/06/11 02:35:52;;;;;;;34.2;29.2;;;;;;;15.42;100;94758.15;;;;
2019/06/11 02:36:53;;;;;;;34.2;29.2;;;;;;;15.42;100;94758.15;;;;
2019/06/11 02:37:54;;;;;;;34.2;29.2;;;;;;;15.42;100;94758.15;;;;
2019/06/11 02:38:55;;;;;;;34.2;29.2;;;;;;;15.42;100;94758.15;;;;
2019/06/11 02:39:56;;;;;;;30.2;27;;;;;;;15.47;100;94782.23;;;;
2019/06/11 02:40:57;;;;;;;30.2;27;;;;;;;15.47;100;94782.23;;;;
2019/06/11 02:41:58;;;;;;;30.2;27;;;;;;;15.47;100;94782.23;;;;
2019/06/11 02:42:59;;;;;;;30.2;27;;;;;;;15.47;100;94782.23;;;;
2019/06/11 02:44:00;;;;;;;30.2;27;;;;;;;15.47;100;94782.23;;;;
2019/06/11 02:45:01;;;;;;;30.2;27;;;;;;;15.47;100;94782.23;;;;
2019/06/11 02:46:03;;;;;;;30.2;27;;;;;;;15.47;100;94782.23;;;;
2019/06/11 02:47:04;;;;;;;30.2;27;;;;;;;15.47;100;94782.23;;;;
2019/06/11 02:48:05;;;;;;;30.2;27;;;;;;;15.47;100;94782.23;;;;
2019/06/11 02:49:06;;;;;;;30.2;27;;;;;;;15.47;100;94782.23;;;;
2019/06/11 02:50:07;;;;;;;31.75;28.3;;;;;;;15.48;100;94790.65;;;;
2019/06/11 02:51:08;;;;;;;31.75;28.3;;;;;;;15.48;100;94790.65;;;;
2019/06/11 02:52:09;;;;;;;31.75;28.3;;;;;;;15.48;100;94790.65;;;;
2019/06/11 02:53:11;;;;;;;31.75;28.3;;;;;;;15.48;100;94790.65;;;;
2019/06/11 02:54:12;;;;;;;31.75;28.3;;;;;;;15.48;100;94790.65;;;;
2019/06/11 02:55:13;;;;;;;31.75;28.3;;;;;;;15.48;100;94790.65;;;;
2019/06/11 02:56:14;;;;;;;31.75;28.3;;;;;;;15.48;100;94790.65;;;;
2019/06/11 02:57:15;;;;;;;31.75;28.3;;;;;;;15.48;100;94790.65;;;;
2019/06/11 02:58:16;;;;;;;31.75;28.3;;;;;;;15.48;100;94790.65;;;;
2019/06/11 02:59:17;;;;;;;31.75;28.3;;;;;;;15.48;100;94790.65;;;;
2019/06/11 03:00:18;;;;;;;30.34999;27.1;;;;;;;15.53;100;94815.52;;;;
2019/06/11 03:01:58;;;;;;;30.34999;27.1;;;;;;;15.53;100;94815.52;;;;
2019/06/11 03:02:59;;;;;;;30.34999;27.1;;;;;;;15.53;100;94815.52;;;;
2019/06/11 03:04:00;;;;;;;30.34999;27.1;;;;;;;15.53;100;94815.52;;;;
2019/06/11 03:05:01;;;;;;;30.34999;27.1;;;;;;;15.53;100;94815.52;;;;
2019/06/11 03:06:03;;;;;;;30.34999;27.1;;;;;;;15.53;100;94815.52;;;;
2019/06/11 03:07:06;;;;;;;30.34999;27.1;;;;;;;15.53;100;94815.52;;;;
2019/06/11 03:08:07;;;;;;;30.34999;27.1;;;;;;;15.53;100;94815.52;;;;
2019/06/11 03:09:08;;;;;;;30.34999;27.1;;;;;;;15.53;100;94815.52;;;;
2019/06/11 03:10:10;;;;;;;30.34999;27.1;;;;;;;15.53;100;94815.52;;;;
2019/06/11 03:11:11;;;;;;;30.34999;27.1;;;;;;;15.53;100;94815.52;;;;
2019/06/11 03:12:12;;;;;;;30.34999;27.1;;;;;;;15.53;100;94815.52;;;;
2019/06/11 03:13:13;;;;;;;30.34999;27.1;;;;;;;15.53;100;94815.52;;;;
2019/06/11 03:14:14;;;;;;;30.34999;27.1;;;;;;;15.53;100;94815.52;;;;
2019/06/11 03:15:15;;;;;;;30.34999;27.1;;;;;;;15.53;100;94815.52;;;;
2019/06/11 03:16:16;;;;;;;30.34999;27.1;;;;;;;15.53;100;94815.52;;;;
2019/06/11 03:17:18;;;;;;;30.34999;27.1;;;;;;;15.53;100;94815.52;;;;
2019/06/11 03:18:19;;;;;;;30.34999;27.1;;;;;;;15.53;100;94815.52;;;;
2019/06/11 03:19:20;;;;;;;30.34999;27.1;;;;;;;15.53;100;94815.52;;;;
2019/06/11 03:20:21;;;;;;;30.34999;27.1;;;;;;;15.53;100;94815.52;;;;
2019/06/11 03:21:34;;;;;;;14.25;12.85;;;;;;;15.49;100;94879.21;;;;
2019/06/11 03:22:35;;;;;;;14.25;12.85;;;;;;;15.49;100;94879.21;;;;
2019/06/11 03:23:36;;;;;;;14.25;12.85;;;;;;;15.49;100;94879.21;;;;
2019/06/11 03:24:37;;;;;;;14.25;12.85;;;;;;;15.49;100;94879.21;;;;
2019/06/11 03:25:38;;;;;;;14.25;12.85;;;;;;;15.49;100;94879.21;;;;
2019/06/11 03:26:39;;;;;;;14.25;12.85;;;;;;;15.49;100;94879.21;;;;
2019/06/11 03:27:40;;;;;;;14.25;12.85;;;;;;;15.49;100;94879.21;;;;
2019/06/11 03:28:41;;;;;;;14.25;12.85;;;;;;;15.49;100;94879.21;;;;
2019/06/11 03:29:42;;;;;;;14.25;12.85;;;;;;;15.49;100;94879.21;;;;
2019/06/11 03:30:43;;;;;;;14.25;12.85;;;;;;;15.49;100;94879.21;;;;
2019/06/11 03:31:44;;;;;;;14.25;12.85;;;;;;;15.49;100;94879.21;;;;
2019/06/11 03:32:45;;;;;;;4.2;3.8;;;;;;;15.35;100;94900.02;;;;
2019/06/11 03:33:47;;;;;;;4.2;3.8;;;;;;;15.35;100;94900.02;;;;
2019/06/11 03:34:48;;;;;;;4.2;3.8;;;;;;;15.35;100;94900.02;;;;
2019/06/11 03:35:49;;;;;;;4.2;3.8;;;;;;;15.35;100;94900.02;;;;
2019/06/11 03:36:50;;;;;;;4.2;3.8;;;;;;;15.35;100;94900.02;;;;
2019/06/11 03:37:51;;;;;;;4.2;3.8;;;;;;;15.35;100;94900.02;;;;
2019/06/11 03:38:52;;;;;;;4.2;3.8;;;;;;;15.35;100;94900.02;;;;
2019/06/11 03:39:53;;;;;;;4.2;3.8;;;;;;;15.35;100;94900.02;;;;
2019/06/11 03:40:54;;;;;;;4.2;3.8;;;;;;;15.35;100;94900.02;;;;
2019/06/11 03:41:55;;;;;;;4.2;3.8;;;;;;;15.35;100;94900.02;;;;
2019/06/11 03:42:57;;;;;;;2.7;1.85;;;;;;;15.1;100;94915.41;;;;
2019/06/11 03:43:58;;;;;;;2.7;1.85;;;;;;;15.1;100;94915.41;;;;
2019/06/11 03:44:59;;;;;;;2.7;1.85;;;;;;;15.1;100;94915.41;;;;
2019/06/11 03:46:00;;;;;;;2.7;1.85;;;;;;;15.1;100;94915.41;;;;
2019/06/11 03:47:01;;;;;;;2.7;1.85;;;;;;;15.1;100;94915.41;;;;
2019/06/11 03:48:02;;;;;;;2.7;1.85;;;;;;;15.1;100;94915.41;;;;
2019/06/11 03:49:03;;;;;;;2.7;1.85;;;;;;;15.1;100;94915.41;;;;
2019/06/11 03:50:04;;;;;;;2.7;1.85;;;;;;;15.1;100;94915.41;;;;
2019/06/11 03:51:06;;;;;;;2.7;1.85;;;;;;;15.1;100;94915.41;;;;
2019/06/11 03:52:07;;;;;;;2.7;1.85;;;;;;;15.1;100;94915.41;;;;
2019/06/11 03:53:08;;;;;;;2.7;1.85;;;;;;;15.1;100;94915.41;;;;
2019/06/11 03:54:09;;;;;;;1.95;1.3;;;;;;;14.77;100;94929.97;;;;
2019/06/11 03:55:10;;;;;;;1.95;1.3;;;;;;;14.77;100;94929.97;;;;
2019/06/11 03:56:11;;;;;;;1.95;1.3;;;;;;;14.77;100;94929.97;;;;
2019/06/11 03:57:12;;;;;;;1.95;1.3;;;;;;;14.77;100;94929.97;;;;
2019/06/11 03:58:13;;;;;;;1.95;1.3;;;;;;;14.77;100;94929.97;;;;
2019/06/11 03:59:14;;;;;;;1.95;1.3;;;;;;;14.77;100;94929.97;;;;
2019/06/11 04:00:15;;;;;;;1.95;1.3;;;;;;;14.77;100;94929.97;;;;
2019/06/11 04:01:16;;;;;;;1.95;1.3;;;;;;;14.77;100;94929.97;;;;
2019/06/11 04:02:17;;;;;;;1.95;1.3;;;;;;;14.77;100;94929.97;;;;
2019/06/11 04:03:18;;;;;;;1.95;1.3;;;;;;;14.77;100;94929.97;;;;
2019/06/11 04:04:19;;;;;;;1.7;1.6;;;;;;;14.54;100;94967.54;;;;
2019/06/11 04:05:20;;;;;;;1.7;1.6;;;;;;;14.54;100;94967.54;;;;
2019/06/11 04:06:21;;;;;;;1.7;1.6;;;;;;;14.54;100;94967.54;;;;
2019/06/11 04:07:23;;;;;;;1.7;1.6;;;;;;;14.54;100;94967.54;;;;
2019/06/11 04:08:24;;;;;;;1.7;1.6;;;;;;;14.54;100;94967.54;;;;
2019/06/11 04:09:25;;;;;;;1.7;1.6;;;;;;;14.54;100;94967.54;;;;
2019/06/11 04:10:26;;;;;;;1.7;1.6;;;;;;;14.54;100;94967.54;;;;
2019/06/11 04:11:27;;;;;;;1.7;1.6;;;;;;;14.54;100;94967.54;;;;
2019/06/11 04:12:28;;;;;;;1.7;1.6;;;;;;;14.54;100;94967.54;;;;
2019/06/11 04:13:29;;;;;;;1.7;1.6;;;;;;;14.54;100;94967.54;;;;
2019/06/11 04:14:30;;;;;;;1.6;1.5;;;;;;;14.3;100;94969.9;;;;
2019/06/11 04:15:31;;;;;;;1.6;1.5;;;;;;;14.3;100;94969.9;;;;
2019/06/11 04:16:32;;;;;;;1.6;1.5;;;;;;;14.3;100;94969.9;;;;
2019/06/11 04:17:33;;;;;;;1.6;1.5;;;;;;;14.3;100;94969.9;;;;
2019/06/11 04:18:34;;;;;;;1.6;1.5;;;;;;;14.3;100;94969.9;;;;
2019/06/11 04:19:35;;;;;;;1.6;1.5;;;;;;;14.3;100;94969.9;;;;
2019/06/11 04:20:36;;;;;;;1.6;1.5;;;;;;;14.3;100;94969.9;;;;
2019/06/11 04:21:37;;;;;;;1.6;1.5;;;;;;;14.3;100;94969.9;;;;
2019/06/11 04:22:38;;;;;;;1.6;1.5;;;;;;;14.3;100;94969.9;;;;
2019/06/11 04:23:40;;;;;;;1.6;1.5;;;;;;;14.3;100;94969.9;;;;
2019/06/11 04:24:41;;;;;;;1.6;1.5;;;;;;;14.3;100;94969.9;;;;
2019/06/11 04:25:42;;;;;;;2;1.6;;;;;;;14.14;100;94975.92;;;;
2019/06/11 04:26:43;;;;;;;2;1.6;;;;;;;14.14;100;94975.92;;;;
2019/06/11 04:27:44;;;;;;;2;1.6;;;;;;;14.14;100;94975.92;;;;
2019/06/11 04:28:45;;;;;;;2;1.6;;;;;;;14.14;100;94975.92;;;;
2019/06/11 04:29:46;;;;;;;2;1.6;;;;;;;14.14;100;94975.92;;;;
2019/06/11 04:30:47;;;;;;;2;1.6;;;;;;;14.14;100;94975.92;;;;
2019/06/11 04:31:48;;;;;;;2;1.6;;;;;;;14.14;100;94975.92;;;;
2019/06/11 04:32:49;;;;;;;2;1.6;;;;;;;14.14;100;94975.92;;;;
2019/06/11 04:33:50;;;;;;;2;1.6;;;;;;;14.14;100;94975.92;;;;
2019/06/11 04:34:51;;;;;;;2;1.6;;;;;;;14.14;100;94975.92;;;;
2019/06/11 04:35:52;;;;;;;1.8;1.7;;;;;;;14.06;100;94964.23;;;;
2019/06/11 04:36:53;;;;;;;1.8;1.7;;;;;;;14.06;100;94964.23;;;;
2019/06/11 04:37:54;;;;;;;1.8;1.7;;;;;;;14.06;100;94964.23;;;;
2019/06/11 04:38:56;;;;;;;1.8;1.7;;;;;;;14.06;100;94964.23;;;;
2019/06/11 04:39:57;;;;;;;1.8;1.7;;;;;;;14.06;100;94964.23;;;;
2019/06/11 04:40:58;;;;;;;1.8;1.7;;;;;;;14.06;100;94964.23;;;;
2019/06/11 04:41:59;;;;;;;1.8;1.7;;;;;;;14.06;100;94964.23;;;;
2019/06/11 04:43:00;;;;;;;1.8;1.7;;;;;;;14.06;100;94964.23;;;;
2019/06/11 04:44:01;;;;;;;1.8;1.7;;;;;;;14.06;100;94964.23;;;;
2019/06/11 04:45:02;;;;;;;1.8;1.7;;;;;;;14.06;100;94964.23;;;;
2019/06/11 04:46:03;;;;;;;1.8;1.7;;;;;;;14.06;100;94964.23;;;;
2019/06/11 04:47:04;;;;;;;1.7;1.6;;;;;;;14.11;100;94927.18;;;;
2019/06/11 04:48:05;;;;;;;1.7;1.6;;;;;;;14.11;100;94927.18;;;;
2019/06/11 04:49:07;;;;;;;1.7;1.6;;;;;;;14.11;100;94927.18;;;;
2019/06/11 04:50:08;;;;;;;1.7;1.6;;;;;;;14.11;100;94927.18;;;;
2019/06/11 04:51:09;;;;;;;1.7;1.6;;;;;;;14.11;100;94927.18;;;;
2019/06/11 04:52:10;;;;;;;1.7;1.6;;;;;;;14.11;100;94927.18;;;;
2019/06/11 04:53:12;;;;;;;1.7;1.6;;;;;;;14.11;100;94927.18;;;;
2019/06/11 04:54:14;;;;;;;1.7;1.6;;;;;;;14.11;100;94927.18;;;;
2019/06/11 04:55:15;;;;;;;1.7;1.6;;;;;;;14.11;100;94927.18;;;;
2019/06/11 04:56:16;;;;;;;1.7;1.6;;;;;;;14.11;100;94927.18;;;;
2019/06/11 04:57:17;;;;;;;2.05;1.6;;;;;;;14.11;100;94880.91;;;;
2019/06/11 04:58:18;;;;;;;2.05;1.6;;;;;;;14.11;100;94880.91;;;;
2019/06/11 04:59:19;;;;;;;2.05;1.6;;;;;;;14.11;100;94880.91;;;;
2019/06/11 05:00:20;;;;;;;2.05;1.6;;;;;;;14.11;100;94880.91;;;;
2019/06/11 05:01:46;;;;;;;2.05;1.6;;;;;;;14.11;100;94880.91;;;;
2019/06/11 05:02:47;;;;;;;2.05;1.6;;;;;;;14.11;100;94880.91;;;;
2019/06/11 05:03:48;;;;;;;2.05;1.6;;;;;;;14.11;100;94880.91;;;;
2019/06/11 05:04:49;;;;;;;2.05;1.6;;;;;;;14.11;100;94880.91;;;;
2019/06/11 05:05:50;;;;;;;2.05;1.6;;;;;;;14.11;100;94880.91;;;;
2019/06/11 05:06:51;;;;;;;2.05;1.6;;;;;;;14.11;100;94880.91;;;;
2019/06/11 05:07:52;;;;;;;2.7;1.6;;;;;;;14.17;100;94838.3;;;;
2019/06/11 05:08:53;;;;;;;2.7;1.6;;;;;;;14.17;100;94838.3;;;;
2019/06/11 05:09:54;;;;;;;2.7;1.6;;;;;;;14.17;100;94838.3;;;;
2019/06/11 05:10:55;;;;;;;2.7;1.6;;;;;;;14.17;100;94838.3;;;;
2019/06/11 05:11:56;;;;;;;2.7;1.6;;;;;;;14.17;100;94838.3;;;;
2019/06/11 05:12:57;;;;;;;2.7;1.6;;;;;;;14.17;100;94838.3;;;;
2019/06/11 05:13:58;;;;;;;2.7;1.6;;;;;;;14.17;100;94838.3;;;;
2019/06/11 05:14:59;;;;;;;2.7;1.6;;;;;;;14.17;100;94838.3;;;;
2019/06/11 05:16:00;;;;;;;2.7;1.6;;;;;;;14.17;100;94838.3;;;;
2019/06/11 05:17:02;;;;;;;2.7;1.6;;;;;;;14.17;100;94838.3;;;;
2019/06/11 05:18:03;;;;;;;1.7;1.6;;;;;;;14.28;100;94842.69;;;;
2019/06/11 05:19:04;;;;;;;1.7;1.6;;;;;;;14.28;100;94842.69;;;;
2019/06/11 05:20:05;;;;;;;1.7;1.6;;;;;;;14.28;100;94842.69;;;;
2019/06/11 05:21:06;;;;;;;1.7;1.6;;;;;;;14.28;100;94842.69;;;;
2019/06/11 05:22:07;;;;;;;1.7;1.6;;;;;;;14.28;100;94842.69;;;;
2019/06/11 05:23:08;;;;;;;1.7;1.6;;;;;;;14.28;100;94842.69;;;;
2019/06/11 05:24:10;;;;;;;1.7;1.6;;;;;;;14.28;100;94842.69;;;;
2019/06/11 05:25:11;;;;;;;1.7;1.6;;;;;;;14.28;100;94842.69;;;;
2019/06/11 05:26:12;;;;;;;1.7;1.6;;;;;;;14.28;100;94842.69;;;;
2019/06/11 05:27:13;;;;;;;1.7;1.6;;;;;;;14.28;100;94842.69;;;;
2019/06/11 05:28:14;;;;;;;1.7;1.6;;;;;;;14.28;100;94842.69;;;;
2019/06/11 05:29:15;;;;;;;2.7;1.8;;;;;;;14.53;100;94854.94;;;;
2019/06/11 05:30:16;;;;;;;2.7;1.8;;;;;;;14.53;100;94854.94;;;;
2019/06/11 05:31:17;;;;;;;2.7;1.8;;;;;;;14.53;100;94854.94;;;;
2019/06/11 05:32:18;;;;;;;2.7;1.8;;;;;;;14.53;100;94854.94;;;;
2019/06/11 05:33:19;;;;;;;2.7;1.8;;;;;;;14.53;100;94854.94;;;;
2019/06/11 05:34:20;;;;;;;2.7;1.8;;;;;;;14.53;100;94854.94;;;;
2019/06/11 05:35:21;;;;;;;2.7;1.8;;;;;;;14.53;100;94854.94;;;;
2019/06/11 05:36:22;;;;;;;2.7;1.8;;;;;;;14.53;100;94854.94;;;;
2019/06/11 05:37:24;;;;;;;2.7;1.8;;;;;;;14.53;100;94854.94;;;;
2019/06/11 05:38:25;;;;;;;2.7;1.8;;;;;;;14.53;100;94854.94;;;;
2019/06/11 05:39:26;;;;;;;1.6;1.5;;;;;;;14.87;100;94855.21;;;;
2019/06/11 05:40:27;;;;;;;1.6;1.5;;;;;;;14.87;100;94855.21;;;;
2019/06/11 05:41:28;;;;;;;1.6;1.5;;;;;;;14.87;100;94855.21;;;;
2019/06/11 05:42:29;;;;;;;1.6;1.5;;;;;;;14.87;100;94855.21;;;;
2019/06/11 05:43:30;;;;;;;1.6;1.5;;;;;;;14.87;100;94855.21;;;;
2019/06/11 05:44:31;;;;;;;1.6;1.5;;;;;;;14.87;100;94855.21;;;;
2019/06/11 05:45:32;;;;;;;1.6;1.5;;;;;;;14.87;100;94855.21;;;;
2019/06/11 05:46:33;;;;;;;1.6;1.5;;;;;;;14.87;100;94855.21;;;;
2019/06/11 05:47:50;;;;;;;1.6;1.5;;;;;;;14.87;100;94855.21;;;;
2019/06/11 05:48:51;;;;;;;1.6;1.5;;;;;;;14.87;100;94855.21;;;;
2019/06/11 05:49:52;;;;;;;2.25;1.7;;;;;;;15.25;100;94827.42;;;;
2019/06/11 05:50:53;;;;;;;2.25;1.7;;;;;;;15.25;100;94827.42;;;;
2019/06/11 05:51:54;;;;;;;2.25;1.7;;;;;;;15.25;100;94827.42;;;;
2019/06/11 05:52:55;;;;;;;2.25;1.7;;;;;;;15.25;100;94827.42;;;;
2019/06/11 05:53:56;;;;;;;2.25;1.7;;;;;;;15.25;100;94827.42;;;;
2019/06/11 05:54:57;;;;;;;2.25;1.7;;;;;;;15.25;100;94827.42;;;;
2019/06/11 05:55:59;;;;;;;2.25;1.7;;;;;;;15.25;100;94827.42;;;;
2019/06/11 05:57:00;;;;;;;2.25;1.7;;;;;;;15.25;100;94827.42;;;;
2019/06/11 05:58:01;;;;;;;2.25;1.7;;;;;;;15.25;100;94827.42;;;;
2019/06/11 05:59:02;;;;;;;2.25;1.7;;;;;;;15.25;100;94827.42;;;;
2019/06/11 06:00:03;;;;;;;2.25;1.7;;;;;;;15.25;100;94827.42;;;;
2019/06/11 06:01:04;;;;;;;1.7;1.6;;;;;;;15.41;100;94847.68;;;;
2019/06/11 06:02:05;;;;;;;1.7;1.6;;;;;;;15.41;100;94847.68;;;;
2019/06/11 06:03:06;;;;;;;1.7;1.6;;;;;;;15.41;100;94847.68;;;;
2019/06/11 06:04:08;;;;;;;1.7;1.6;;;;;;;15.41;100;94847.68;;;;
2019/06/11 06:05:09;;;;;;;1.7;1.6;;;;;;;15.41;100;94847.68;;;;
2019/06/11 06:06:10;;;;;;;1.7;1.6;;;;;;;15.41;100;94847.68;;;;
2019/06/11 06:07:11;;;;;;;1.7;1.6;;;;;;;15.41;100;94847.68;;;;
2019/06/11 06:08:12;;;;;;;1.7;1.6;;;;;;;15.41;100;94847.68;;;;
2019/06/11 06:09:13;;;;;;;1.7;1.6;;;;;;;15.41;100;94847.68;;;;
2019/06/11 06:10:14;;;;;;;1.7;1.6;;;;;;;15.41;100;94847.68;;;;
2019/06/11 06:11:15;;;;;;;1.95;1.65;;;;;;;15.66;100;94830.74;;;;
2019/06/11 06:12:16;;;;;;;1.95;1.65;;;;;;;15.66;100;94830.74;;;;
2019/06/11 06:13:18;;;;;;;1.95;1.65;;;;;;;15.66;100;94830.74;;;;
2019/06/11 06:14:19;;;;;;;1.95;1.65;;;;;;;15.66;100;94830.74;;;;
2019/06/11 06:15:20;;;;;;;1.95;1.65;;;;;;;15.66;100;94830.74;;;;
2019/06/11 06:16:21;;;;;;;1.95;1.65;;;;;;;15.66;100;94830.74;;;;